Time;durP1;ratioP1;P1;durP2;ratioP2;P2;SDS_P1;SDS_P2;PMS_P1;PMS_P2;Temp;Humidity;BMP_temperature;BMP_pressure;BME280_temperature;BME280_humidity;BME280_pressure;Samples;Min_cycle;Max_cycle;Signal;HPM_P1;HPM_P2
2023/01/08 00:01:19;;;;;;;12.00;4.10;;;11.00;99.90;;;;;;5064813;28;20208;-77
2023/01/08 00:03:48;;;;;;;13.83;4.27;;;11.00;99.90;;;;;;5068646;28;20220;-76
2023/01/08 00:06:17;;;;;;;14.60;4.30;;;11.00;99.90;;;;;;5069017;28;20200;-77
2023/01/08 00:08:45;;;;;;;12.27;3.77;;;11.00;99.90;;;;;;5068123;28;20291;-78
2023/01/08 00:11:12;;;;;;;13.30;3.80;;;11.00;99.90;;;;;;5068926;28;20232;-78
2023/01/08 00:13:39;;;;;;;13.13;4.00;;;11.10;99.90;;;;;;5065356;28;20700;-78
2023/01/08 00:16:09;;;;;;;12.13;3.97;;;11.10;99.90;;;;;;5067598;28;20208;-77
2023/01/08 00:18:36;;;;;;;12.43;3.60;;;11.10;99.90;;;;;;5063438;28;20251;-77
2023/01/08 00:21:05;;;;;;;12.33;3.90;;;11.10;99.90;;;;;;5062251;28;20238;-77
2023/01/08 00:23:32;;;;;;;14.17;4.57;;;11.10;99.90;;;;;;5062615;28;20212;-77
2023/01/08 00:26:01;;;;;;;11.53;3.60;;;11.10;99.90;;;;;;5064375;28;20208;-77
2023/01/08 00:28:28;;;;;;;12.17;3.93;;;11.10;99.90;;;;;;5062158;28;20204;-77
2023/01/08 00:30:55;;;;;;;23.50;6.43;;;11.10;99.90;;;;;;5064024;28;20236;-77
2023/01/08 00:33:22;;;;;;;10.10;3.57;;;11.20;99.90;;;;;;5062335;28;20212;-77
2023/01/08 00:35:48;;;;;;;11.70;3.83;;;11.20;99.90;;;;;;5065460;28;20216;-77
2023/01/08 00:38:17;;;;;;;12.30;3.80;;;11.20;99.90;;;;;;5061082;28;20308;-76
2023/01/08 00:40:44;;;;;;;14.10;4.43;;;11.20;99.90;;;;;;5060943;28;20220;-76
2023/01/08 00:43:10;;;;;;;11.43;3.70;;;11.20;99.90;;;;;;5059099;28;20212;-76
2023/01/08 00:45:37;;;;;;;15.00;4.10;;;11.20;99.90;;;;;;5068519;28;20219;-76
2023/01/08 00:48:05;;;;;;;15.17;3.93;;;11.20;99.90;;;;;;5062336;28;20205;-76
2023/01/08 00:50:32;;;;;;;12.10;4.03;;;11.20;99.90;;;;;;5065959;28;20230;-76
2023/01/08 00:52:59;;;;;;;12.33;4.03;;;11.20;99.90;;;;;;5062200;28;20208;-76
2023/01/08 00:55:28;;;;;;;11.30;3.83;;;11.20;99.90;;;;;;5065487;28;20215;-76
2023/01/08 00:57:56;;;;;;;13.83;4.37;;;11.20;99.90;;;;;;5056531;28;21087;-76
2023/01/08 01:00:24;;;;;;;12.07;3.60;;;11.20;99.90;;;;;;5060400;28;20224;-76
2023/01/08 01:02:51;;;;;;;10.60;3.50;;;11.20;99.90;;;;;;5068225;28;20294;-76
2023/01/08 01:05:18;;;;;;;12.63;4.07;;;11.20;99.90;;;;;;5068677;28;20204;-76
2023/01/08 01:07:46;;;;;;;13.10;4.20;;;11.20;99.90;;;;;;5058125;28;20280;-76
2023/01/08 01:10:15;;;;;;;11.67;3.70;;;11.20;99.90;;;;;;5067626;28;20676;-79
2023/01/08 01:12:43;;;;;;;10.60;3.57;;;11.10;99.90;;;;;;5062839;28;20267;-75
2023/01/08 01:15:13;;;;;;;12.60;3.80;;;11.10;99.90;;;;;;5066349;28;20242;-76
2023/01/08 01:17:42;;;;;;;13.33;4.47;;;11.10;99.90;;;;;;5058849;28;20220;-76
2023/01/08 01:20:11;;;;;;;10.80;3.60;;;11.10;99.90;;;;;;5057176;28;20682;-77
2023/01/08 01:22:39;;;;;;;11.23;3.80;;;11.10;99.90;;;;;;5063833;28;20213;-78
2023/01/08 01:25:07;;;;;;;11.83;3.70;;;11.10;99.90;;;;;;5065948;28;20216;-78
2023/01/08 01:27:34;;;;;;;12.70;3.83;;;11.10;99.90;;;;;;5068213;28;20204;-76
2023/01/08 01:30:02;;;;;;;14.00;4.23;;;11.10;99.90;;;;;;5060623;28;20235;-76
2023/01/08 01:32:29;;;;;;;12.30;3.57;;;11.00;99.90;;;;;;5065360;28;20207;-76
2023/01/08 01:34:56;;;;;;;13.60;4.03;;;11.00;99.90;;;;;;5062193;28;20239;-77
2023/01/08 01:37:23;;;;;;;14.87;4.53;;;11.00;99.90;;;;;;5059708;28;20204;-78
2023/01/08 01:39:50;;;;;;;12.70;3.87;;;11.00;99.90;;;;;;5066418;28;20224;-78
2023/01/08 01:45:00;;;;;;;13.57;4.20;;;11.00;99.90;;;;;;5059945;28;20220;-76
2023/01/08 01:47:32;;;;;;;13.17;4.00;;;11.00;99.90;;;;;;5064137;28;20201;-78
2023/01/08 01:50:05;;;;;;;13.47;3.87;;;11.00;99.90;;;;;;5061436;28;20237;-78
2023/01/08 01:52:38;;;;;;;9.87;3.57;;;11.00;99.90;;;;;;5071773;28;20586;-76
2023/01/08 01:55:06;;;;;;;13.53;4.27;;;11.10;99.90;;;;;;5062646;28;20209;-76
2023/01/08 01:57:33;;;;;;;16.07;3.93;;;10.90;99.90;;;;;;5066647;28;20235;-76
2023/01/08 02:00:03;;;;;;;15.10;4.30;;;11.00;99.90;;;;;;5067485;28;20594;-76
2023/01/08 02:02:40;;;;;;;13.00;3.90;;;11.00;99.90;;;;;;5060160;28;20720;-76
2023/01/08 02:05:07;;;;;;;13.80;4.33;;;11.00;99.90;;;;;;5063958;28;20966;-76
2023/01/08 02:07:41;;;;;;;10.77;3.63;;;11.00;99.90;;;;;;5065167;28;20228;-76
2023/01/08 02:10:13;;;;;;;13.13;4.23;;;11.00;99.90;;;;;;5059043;28;20232;-75
2023/01/08 02:12:45;;;;;;;14.30;4.37;;;11.00;99.90;;;;;;5065403;28;20247;-77
2023/01/08 02:15:16;;;;;;;10.43;3.63;;;11.00;99.90;;;;;;5061358;28;20212;-77
2023/01/08 02:17:54;;;;;;;15.03;4.73;;;11.00;99.90;;;;;;5064524;28;20226;-78
2023/01/08 02:20:26;;;;;;;14.13;4.27;;;11.00;99.90;;;;;;5056301;28;20228;-78
2023/01/08 02:23:16;;;;;;;13.10;4.10;;;11.00;99.90;;;;;;5065396;28;20588;-78
2023/01/08 02:26:17;;;;;;;14.87;4.53;;;11.00;99.90;;;;;;5061101;28;20204;-78
2023/01/08 02:28:52;;;;;;;8.97;3.10;;;11.00;99.90;;;;;;5026973;28;20235;-78
2023/01/08 02:31:21;;;;;;;12.87;4.40;;;11.00;99.90;;;;;;5061158;28;20684;-78
2023/01/08 02:33:48;;;;;;;17.77;6.03;;;10.90;99.90;;;;;;5058514;28;20215;-78
2023/01/08 02:36:30;;;;;;;10.03;3.57;;;10.90;99.90;;;;;;5059831;28;20208;-76
2023/01/08 02:39:19;;;;;;;17.70;4.60;;;10.90;99.90;;;;;;5061980;28;20231;-77
2023/01/08 02:42:05;;;;;;;12.67;3.83;;;10.90;99.90;;;;;;5069686;28;20215;-77
2023/01/08 02:44:45;;;;;;;12.33;3.80;;;10.90;99.90;;;;;;5064524;28;20219;-76
2023/01/08 02:47:19;;;;;;;16.63;5.33;;;10.90;99.90;;;;;;5065349;28;20787;-76
2023/01/08 02:49:49;;;;;;;11.17;3.90;;;10.90;99.90;;;;;;5063961;28;20275;-76
2023/01/08 02:52:18;;;;;;;11.23;3.87;;;10.90;99.90;;;;;;5066330;28;20208;-76
2023/01/08 02:54:46;;;;;;;11.57;3.83;;;10.90;99.90;;;;;;5067599;28;20688;-76
2023/01/08 02:57:17;;;;;;;10.87;3.77;;;10.90;99.90;;;;;;5071507;28;20219;-76
2023/01/08 02:59:48;;;;;;;12.87;3.80;;;10.90;99.90;;;;;;5065457;28;20315;-76
2023/01/08 03:02:15;;;;;;;14.47;4.23;;;10.90;99.90;;;;;;5064733;28;20235;-76
2023/01/08 03:04:50;;;;;;;13.90;4.37;;;10.90;99.90;;;;;;5068283;28;20208;-76
2023/01/08 03:07:17;;;;;;;14.23;4.53;;;10.90;99.90;;;;;;5059827;28;20219;-76
2023/01/08 03:09:44;;;;;;;12.23;4.10;;;10.90;99.90;;;;;;5068265;28;20221;-76
2023/01/08 03:12:18;;;;;;;8.97;3.47;;;11.00;99.90;;;;;;5066352;28;20231;-76
2023/01/08 03:14:52;;;;;;;13.07;3.90;;;10.90;99.90;;;;;;5069101;28;20575;-76
2023/01/08 03:17:24;;;;;;;12.93;4.07;;;10.90;99.90;;;;;;5066389;28;20236;-76
2023/01/08 03:19:54;;;;;;;14.13;4.23;;;10.90;99.90;;;;;;5068529;28;20235;-76
2023/01/08 03:22:23;;;;;;;11.73;3.97;;;10.90;99.90;;;;;;5064062;28;20219;-76
2023/01/08 03:24:54;;;;;;;9.23;3.33;;;10.80;99.90;;;;;;5068731;28;20200;-76
2023/01/08 03:27:26;;;;;;;14.87;4.17;;;10.80;99.90;;;;;;5065842;28;20307;-76
2023/01/08 03:29:58;;;;;;;13.40;4.00;;;10.80;99.90;;;;;;5069198;28;20314;-76
2023/01/08 03:32:27;;;;;;;12.37;3.80;;;10.90;99.90;;;;;;5064941;28;20208;-76
2023/01/08 03:34:56;;;;;;;11.20;3.47;;;10.90;99.90;;;;;;5065396;28;20231;-76
2023/01/08 03:37:27;;;;;;;13.00;4.23;;;10.90;99.90;;;;;;5068977;28;20234;-76
2023/01/08 03:39:59;;;;;;;14.67;4.37;;;10.90;99.90;;;;;;5062656;28;20258;-76
2023/01/08 03:42:30;;;;;;;12.03;4.10;;;10.90;99.90;;;;;;5066529;28;20209;-75
2023/01/08 03:44:57;;;;;;;13.80;4.10;;;11.00;99.90;;;;;;5058086;28;20637;-75
2023/01/08 03:47:27;;;;;;;14.37;4.30;;;11.00;99.90;;;;;;5066348;28;20208;-76
2023/01/08 03:49:55;;;;;;;15.00;4.63;;;11.00;99.90;;;;;;5061729;28;20936;-75
2023/01/08 03:52:24;;;;;;;13.97;4.33;;;11.00;99.90;;;;;;5068350;28;20292;-75
2023/01/08 03:54:51;;;;;;;16.03;4.60;;;11.00;99.90;;;;;;5059690;28;20243;-76
2023/01/08 03:57:18;;;;;;;11.80;4.00;;;10.90;99.90;;;;;;5067000;28;20775;-76
2023/01/08 04:02:21;;;;;;;15.10;4.70;;;11.00;99.90;;;;;;5028200;28;20209;-77
2023/01/08 04:04:48;;;;;;;12.27;4.37;;;11.00;99.90;;;;;;5030152;28;20209;-78
2023/01/08 04:07:15;;;;;;;11.50;4.20;;;10.90;99.90;;;;;;5029968;28;20209;-75
2023/01/08 04:09:42;;;;;;;11.43;3.77;;;10.90;99.90;;;;;;5012480;28;20786;-76
2023/01/08 04:12:09;;;;;;;12.20;3.93;;;10.90;99.90;;;;;;5029836;28;20214;-76
2023/01/08 04:14:36;;;;;;;13.53;3.53;;;10.90;99.90;;;;;;5030006;28;20682;-76
2023/01/08 04:17:03;;;;;;;12.83;4.40;;;10.90;99.90;;;;;;5034811;28;20209;-76
2023/01/08 04:19:31;;;;;;;12.80;4.37;;;10.90;99.90;;;;;;5030687;28;20271;-76
2023/01/08 04:21:58;;;;;;;12.23;4.10;;;10.90;99.90;;;;;;5016130;28;20210;-76
2023/01/08 04:24:25;;;;;;;12.43;3.93;;;10.90;99.90;;;;;;5016439;28;20220;-76
2023/01/08 04:26:52;;;;;;;12.37;4.47;;;10.90;99.90;;;;;;5018964;28;20213;-77
2023/01/08 04:29:19;;;;;;;11.63;3.90;;;10.90;99.90;;;;;;5013307;28;20221;-77
2023/01/08 04:31:45;;;;;;;12.80;4.53;;;10.80;99.90;;;;;;5028768;28;20209;-78
2023/01/08 04:34:12;;;;;;;11.73;3.53;;;10.80;99.90;;;;;;5029371;28;20214;-78
2023/01/08 04:36:41;;;;;;;12.30;4.00;;;10.80;99.90;;;;;;5027306;28;20212;-77
2023/01/08 04:39:09;;;;;;;13.97;4.50;;;10.80;99.90;;;;;;5028901;28;20745;-78
2023/01/08 04:41:36;;;;;;;10.37;3.60;;;10.80;99.90;;;;;;5029597;28;20209;-79
2023/01/08 04:44:04;;;;;;;12.23;3.83;;;10.70;99.90;;;;;;5029505;28;20205;-78
2023/01/08 04:46:31;;;;;;;10.43;3.70;;;10.70;99.90;;;;;;5030145;28;20225;-77
2023/01/08 04:48:57;;;;;;;11.67;3.93;;;10.70;99.90;;;;;;5029867;28;20225;-77
2023/01/08 04:51:25;;;;;;;11.43;3.90;;;10.70;99.90;;;;;;5029591;28;20557;-78
2023/01/08 04:53:53;;;;;;;12.80;3.93;;;10.60;99.90;;;;;;5029736;28;20209;-78
2023/01/08 04:56:20;;;;;;;12.43;3.83;;;10.60;99.90;;;;;;5012471;28;20210;-77
2023/01/08 04:58:47;;;;;;;12.90;3.67;;;10.60;99.90;;;;;;5028941;28;20729;-79
2023/01/08 05:01:19;;;;;;;9.83;3.23;;;10.60;99.90;;;;;;5028748;28;20245;-77
2023/01/08 05:03:45;;;;;;;13.57;4.20;;;10.50;99.90;;;;;;5014242;28;20217;-78
2023/01/08 05:06:12;;;;;;;13.17;3.93;;;10.50;99.90;;;;;;5029535;28;20210;-77
2023/01/08 05:08:39;;;;;;;12.17;3.70;;;10.50;99.90;;;;;;5029252;28;20581;-78
2023/01/08 05:11:08;;;;;;;11.60;3.60;;;10.50;99.90;;;;;;5029062;28;20407;-77
2023/01/08 05:13:34;;;;;;;13.47;4.07;;;10.50;99.90;;;;;;5028681;28;20209;-77
2023/01/08 05:16:02;;;;;;;13.13;3.87;;;10.50;99.90;;;;;;5020918;28;20232;-80
2023/01/08 05:18:29;;;;;;;13.30;3.70;;;10.50;99.90;;;;;;5029315;28;20573;-78
2023/01/08 05:21:00;;;;;;;11.10;3.43;;;10.50;99.90;;;;;;5029344;28;20239;-77
2023/01/08 05:23:27;;;;;;;11.20;3.97;;;10.60;99.90;;;;;;5028845;28;20210;-77
2023/01/08 05:25:57;;;;;;;12.20;3.73;;;10.60;99.90;;;;;;5033583;28;20205;-79
2023/01/08 05:28:26;;;;;;;13.67;4.10;;;10.60;99.90;;;;;;5030393;28;20206;-78
2023/01/08 05:30:53;;;;;;;22.77;6.20;;;10.60;99.90;;;;;;5029204;28;20232;-78
2023/01/08 05:33:20;;;;;;;12.50;3.90;;;10.60;99.90;;;;;;5029040;28;20220;-79
2023/01/08 05:35:47;;;;;;;8.77;3.20;;;10.60;99.90;;;;;;5028699;28;20220;-77
2023/01/08 05:38:14;;;;;;;11.60;3.50;;;10.60;99.90;;;;;;5028376;28;20205;-79
2023/01/08 05:40:41;;;;;;;12.53;4.03;;;10.60;99.90;;;;;;5530332;22;20324;-78
2023/01/08 05:43:08;;;;;;;10.07;3.20;;;10.60;99.90;;;;;;5061642;28;20236;-79
2023/01/08 05:45:36;;;;;;;10.17;3.50;;;10.50;99.90;;;;;;5057767;28;20309;-77
2023/01/08 05:48:06;;;;;;;12.23;3.93;;;10.50;99.90;;;;;;5056079;28;20514;-77
2023/01/08 05:50:32;;;;;;;8.37;3.00;;;10.40;99.90;;;;;;5051555;28;20270;-78
2023/01/08 05:52:59;;;;;;;10.67;3.17;;;10.30;99.90;;;;;;5045831;28;20215;-78
2023/01/08 05:55:26;;;;;;;13.20;3.60;;;10.20;99.90;;;;;;5048413;28;20216;-77
2023/01/08 05:57:53;;;;;;;10.70;3.47;;;10.20;99.90;;;;;;5048924;28;20208;-77
2023/01/08 06:00:20;;;;;;;11.70;3.50;;;10.20;99.90;;;;;;5050746;28;20228;-79
2023/01/08 06:02:48;;;;;;;14.60;4.00;;;10.20;99.90;;;;;;5047565;28;20214;-76
2023/01/08 06:05:15;;;;;;;13.00;3.83;;;10.20;99.90;;;;;;5046214;28;20208;-78
2023/01/08 06:07:42;;;;;;;11.63;3.47;;;10.20;99.90;;;;;;5045971;28;20279;-78
2023/01/08 06:10:10;;;;;;;12.50;3.50;;;10.30;99.90;;;;;;5052182;28;20216;-78
2023/01/08 06:12:37;;;;;;;10.83;3.20;;;10.30;99.90;;;;;;5047046;28;20270;-77
2023/01/08 06:15:04;;;;;;;14.97;3.13;;;10.40;99.90;;;;;;5046763;28;20213;-78
2023/01/08 06:17:31;;;;;;;17.30;3.83;;;10.40;99.90;;;;;;5047247;28;20209;-78
2023/01/08 06:19:59;;;;;;;11.20;3.23;;;10.50;99.90;;;;;;5048752;28;20705;-77
2023/01/08 06:22:26;;;;;;;10.67;3.10;;;10.50;99.90;;;;;;5047995;28;20205;-77
2023/01/08 06:24:53;;;;;;;13.03;3.27;;;10.60;99.90;;;;;;5047434;28;20208;-77
2023/01/08 06:27:20;;;;;;;12.20;3.37;;;10.60;99.90;;;;;;5046324;28;20729;-78
2023/01/08 06:29:47;;;;;;;12.27;3.57;;;10.60;99.90;;;;;;5045845;28;20221;-77
2023/01/08 06:32:14;;;;;;;9.67;2.90;;;10.70;99.90;;;;;;5047624;28;20818;-80
2023/01/08 06:34:41;;;;;;;9.80;3.10;;;10.70;99.90;;;;;;5049122;28;20205;-79
2023/01/08 06:37:09;;;;;;;15.50;4.93;;;10.70;99.90;;;;;;5050132;28;20216;-79
2023/01/08 06:39:36;;;;;;;10.43;3.87;;;10.50;99.90;;;;;;5048929;28;20221;-79
2023/01/08 06:42:03;;;;;;;16.33;5.63;;;10.30;99.90;;;;;;5046784;28;20213;-79
2023/01/08 06:44:30;;;;;;;21.43;7.07;;;10.10;99.90;;;;;;5042839;28;20208;-79
2023/01/08 06:46:58;;;;;;;12.10;3.23;;;10.10;99.90;;;;;;5046380;28;20200;-79
2023/01/08 06:49:24;;;;;;;10.83;3.00;;;10.00;99.90;;;;;;5047295;28;20229;-80
2023/01/08 06:51:51;;;;;;;13.67;3.37;;;9.90;99.90;;;;;;5047919;28;21309;-78
2023/01/08 06:54:20;;;;;;;15.57;3.50;;;9.90;99.90;;;;;;5047475;28;20642;-79
2023/01/08 06:56:48;;;;;;;15.27;3.50;;;9.80;99.90;;;;;;5047333;28;20718;-78
2023/01/08 06:59:15;;;;;;;12.50;3.60;;;9.70;99.90;;;;;;5047560;28;20228;-82
2023/01/08 07:01:42;;;;;;;17.17;6.17;;;9.60;99.90;;;;;;5048405;28;20650;-79
2023/01/08 07:04:10;;;;;;;17.37;6.77;;;9.60;99.90;;;;;;5046845;28;20212;-78
2023/01/08 07:06:37;;;;;;;20.53;6.20;;;9.60;99.90;;;;;;5047336;28;20205;-79
2023/01/08 07:09:04;;;;;;;12.23;3.60;;;9.50;99.90;;;;;;5047879;28;20213;-78
2023/01/08 07:11:34;;;;;;;9.47;3.10;;;9.50;99.90;;;;;;5049696;28;20264;-80
2023/01/08 07:14:01;;;;;;;11.13;3.67;;;9.50;99.90;;;;;;5048348;28;20201;-77
2023/01/08 07:16:28;;;;;;;14.33;5.53;;;9.40;99.90;;;;;;5048126;28;20208;-78
2023/01/08 07:18:54;;;;;;;13.90;3.40;;;9.40;99.90;;;;;;5049427;28;20203;-77
2023/01/08 07:21:22;;;;;;;13.23;3.67;;;9.40;99.90;;;;;;5059548;28;20233;-81
2023/01/08 07:23:50;;;;;;;26.83;10.03;;;9.40;99.90;;;;;;5072129;28;20212;-82
2023/01/08 07:26:17;;;;;;;24.43;8.87;;;9.40;99.90;;;;;;5053991;28;20283;-77
2023/01/08 07:28:46;;;;;;;13.53;3.63;;;9.40;99.90;;;;;;5050862;28;20200;-79
2023/01/08 07:31:13;;;;;;;12.97;3.63;;;9.30;99.90;;;;;;5049766;28;20220;-78
2023/01/08 07:33:40;;;;;;;14.73;3.87;;;9.30;99.90;;;;;;5049002;28;20712;-77
2023/01/08 07:36:09;;;;;;;14.63;3.47;;;9.20;99.90;;;;;;5049748;28;20216;-76
2023/01/08 07:38:36;;;;;;;12.93;3.13;;;9.20;99.90;;;;;;5050740;28;20300;-79
2023/01/08 07:41:03;;;;;;;11.60;3.30;;;9.20;99.90;;;;;;5051767;28;20239;-77
2023/01/08 07:43:30;;;;;;;13.13;3.30;;;9.20;99.90;;;;;;5049895;28;20255;-77
2023/01/08 07:46:02;;;;;;;17.37;4.20;;;9.10;99.90;;;;;;5047678;28;20755;-77
2023/01/08 07:48:29;;;;;;;11.67;3.17;;;9.10;99.90;;;;;;5050288;28;20204;-77
2023/01/08 07:51:01;;;;;;;13.33;3.60;;;9.10;99.90;;;;;;5049863;28;20233;-77
2023/01/08 07:53:28;;;;;;;13.83;3.97;;;9.10;99.90;;;;;;5048034;28;20231;-77
2023/01/08 07:55:59;;;;;;;13.43;4.03;;;9.00;99.90;;;;;;5041806;28;20224;-78
2023/01/08 07:58:26;;;;;;;14.17;3.30;;;9.00;99.90;;;;;;5050678;28;20208;-77
2023/01/08 08:00:53;;;;;;;11.90;3.33;;;9.00;99.90;;;;;;5049351;28;20233;-77
2023/01/08 08:03:22;;;;;;;11.53;3.27;;;9.00;99.90;;;;;;5050355;28;20217;-77
2023/01/08 08:05:49;;;;;;;14.00;3.60;;;9.10;99.90;;;;;;5050034;28;20212;-77
2023/01/08 08:08:16;;;;;;;11.30;3.00;;;9.00;99.90;;;;;;5055882;28;20247;-77
2023/01/08 08:10:44;;;;;;;12.00;3.30;;;9.00;99.90;;;;;;5050089;28;20224;-77
2023/01/08 08:13:12;;;;;;;9.73;2.90;;;9.00;99.90;;;;;;5051916;28;20209;-77
2023/01/08 08:15:40;;;;;;;11.23;3.43;;;8.90;99.90;;;;;;5049865;28;20200;-77
2023/01/08 08:18:07;;;;;;;15.97;3.77;;;8.80;99.90;;;;;;5051654;28;20205;-76
2023/01/08 08:20:41;;;;;;;11.27;3.30;;;8.70;99.90;;;;;;5046198;28;20232;-77
2023/01/08 08:23:11;;;;;;;13.87;3.37;;;8.60;99.90;;;;;;5054754;28;20218;-76
2023/01/08 08:25:38;;;;;;;15.13;3.37;;;8.50;99.90;;;;;;5048210;28;20205;-76
2023/01/08 08:28:06;;;;;;;12.03;3.43;;;8.40;99.90;;;;;;5050111;28;20217;-76
2023/01/08 08:30:35;;;;;;;14.60;4.03;;;8.30;99.90;;;;;;5565020;22;20741;-76
2023/01/08 08:33:03;;;;;;;12.93;3.27;;;8.30;99.90;;;;;;5020182;28;20204;-76
2023/01/08 08:35:32;;;;;;;15.70;4.03;;;8.20;99.90;;;;;;5013691;28;20220;-76
2023/01/08 08:38:00;;;;;;;20.23;3.87;;;8.20;99.90;;;;;;5029066;28;20294;-77
2023/01/08 08:40:28;;;;;;;15.67;3.60;;;8.10;99.90;;;;;;5026074;28;20559;-77
2023/01/08 08:42:56;;;;;;;15.00;3.83;;;8.10;99.90;;;;;;5021101;28;20219;-77
2023/01/08 08:45:23;;;;;;;9.97;3.03;;;8.10;99.90;;;;;;5020267;28;20624;-77
2023/01/08 08:47:50;;;;;;;12.77;3.60;;;8.10;99.90;;;;;;5008756;28;20213;-77
2023/01/08 08:50:18;;;;;;;17.30;4.00;;;8.00;99.90;;;;;;5015596;28;20232;-77
2023/01/08 08:52:45;;;;;;;11.80;4.00;;;8.00;99.90;;;;;;5027657;28;20210;-77
2023/01/08 08:55:15;;;;;;;12.70;3.60;;;8.10;99.90;;;;;;5013810;28;20629;-77
2023/01/08 08:57:44;;;;;;;15.67;3.77;;;8.20;99.90;;;;;;5018391;28;20234;-77
2023/01/08 09:00:13;;;;;;;12.97;3.50;;;8.20;99.90;;;;;;5020854;28;20274;-76
2023/01/08 09:02:40;;;;;;;12.07;3.20;;;8.30;99.90;;;;;;5014178;28;20922;-76
2023/01/08 09:05:07;;;;;;;17.50;3.97;;;8.40;99.90;;;;;;5010178;28;20338;-76
2023/01/08 09:07:34;;;;;;;10.30;3.07;;;8.40;99.90;;;;;;5021501;28;20690;-76
2023/01/08 09:10:01;;;;;;;14.00;3.80;;;9.10;99.90;;;;;;5011120;28;20234;-76
2023/01/08 09:12:30;;;;;;;13.93;3.50;;;8.60;99.90;;;;;;4999482;28;20211;-76
2023/01/08 09:14:57;;;;;;;14.93;3.77;;;8.70;99.90;;;;;;5004815;28;20214;-77
2023/01/08 09:17:25;;;;;;;16.50;4.30;;;8.90;99.90;;;;;;5010821;28;20949;-77
2023/01/08 09:19:52;;;;;;;16.77;3.53;;;9.00;99.90;;;;;;5015087;28;20257;-77
2023/01/08 09:22:19;;;;;;;17.07;3.50;;;9.10;99.90;;;;;;5017458;28;20374;-77
2023/01/08 09:24:46;;;;;;;13.73;3.50;;;9.20;99.90;;;;;;4997115;28;20210;-78
2023/01/08 09:27:13;;;;;;;20.27;4.67;;;9.30;99.90;;;;;;5017196;28;20214;-77
2023/01/08 09:29:42;;;;;;;14.57;4.00;;;9.40;99.90;;;;;;5014964;28;20271;-77
2023/01/08 09:32:10;;;;;;;14.70;3.60;;;9.60;99.90;;;;;;5014566;28;20214;-77
2023/01/08 09:34:37;;;;;;;15.80;3.93;;;9.70;99.90;;;;;;5021080;28;20305;-77
2023/01/08 09:37:05;;;;;;;15.50;4.03;;;9.80;99.90;;;;;;5024107;28;20214;-77
2023/01/08 09:39:32;;;;;;;13.57;3.73;;;9.90;99.90;;;;;;5013785;28;20230;-77
2023/01/08 09:42:03;;;;;;;14.07;3.87;;;10.10;99.90;;;;;;5018063;28;20236;-77
2023/01/08 09:44:35;;;;;;;20.10;4.23;;;10.20;99.90;;;;;;5019084;28;20213;-77
2023/01/08 09:47:05;;;;;;;12.43;3.50;;;10.30;99.90;;;;;;5023159;28;20217;-77
2023/01/08 09:49:40;;;;;;;15.53;4.03;;;10.40;99.90;;;;;;4999152;28;20238;-77
2023/01/08 09:52:11;;;;;;;17.47;4.70;;;10.40;99.90;;;;;;5019323;28;20201;-78
2023/01/08 09:54:38;;;;;;;15.13;4.67;;;10.50;99.90;;;;;;5019283;28;20210;-78
2023/01/08 09:57:05;;;;;;;19.03;4.33;;;10.50;99.90;;;;;;5006471;28;20202;-77
2023/01/08 09:59:32;;;;;;;17.43;4.50;;;10.50;99.90;;;;;;5018614;28;20582;-77
2023/01/08 10:01:59;;;;;;;16.10;4.20;;;10.50;99.90;;;;;;5017721;28;20597;-78
2023/01/08 10:04:30;;;;;;;18.47;5.10;;;10.60;99.90;;;;;;5011236;28;20717;-77
2023/01/08 10:07:02;;;;;;;15.03;4.43;;;10.90;99.90;;;;;;4998516;28;20218;-78
2023/01/08 10:09:31;;;;;;;14.93;3.87;;;11.20;99.90;;;;;;5021541;28;20226;-76
2023/01/08 10:12:02;;;;;;;15.17;4.33;;;11.50;99.90;;;;;;4996370;28;20274;-76
2023/01/08 10:14:32;;;;;;;16.33;3.83;;;11.70;99.90;;;;;;5021493;28;20293;-76
2023/01/08 10:17:02;;;;;;;11.13;3.20;;;11.90;99.90;;;;;;5001695;28;20222;-77
2023/01/08 10:19:30;;;;;;;12.87;3.80;;;12.10;99.90;;;;;;5009930;28;20489;-76
2023/01/08 10:21:59;;;;;;;17.30;4.03;;;12.20;99.90;;;;;;5019784;28;20227;-77
2023/01/08 10:24:35;;;;;;;13.37;3.60;;;12.30;99.90;;;;;;5029463;28;20430;-76
2023/01/08 10:27:07;;;;;;;14.23;3.97;;;12.40;99.90;;;;;;5025917;28;20908;-77
2023/01/08 10:29:35;;;;;;;16.43;3.93;;;12.30;99.90;;;;;;5012855;28;20237;-76
2023/01/08 10:32:09;;;;;;;13.77;3.70;;;12.40;99.90;;;;;;5014700;28;20206;-75
2023/01/08 10:34:44;;;;;;;14.60;4.30;;;12.40;99.90;;;;;;5017643;28;20260;-76
2023/01/08 10:37:22;;;;;;;14.27;3.30;;;12.60;99.90;;;;;;5024314;28;20206;-76
2023/01/08 10:39:50;;;;;;;10.57;3.43;;;12.60;99.90;;;;;;4998953;28;20226;-77
2023/01/08 10:42:19;;;;;;;14.83;3.37;;;12.50;99.90;;;;;;4997379;28;20577;-76
2023/01/08 10:44:58;;;;;;;12.40;3.50;;;12.40;99.90;;;;;;5022137;28;20213;-77
2023/01/08 10:47:30;;;;;;;15.23;4.40;;;12.30;99.90;;;;;;5013895;28;20203;-76
2023/01/08 10:50:00;;;;;;;15.00;3.90;;;12.30;99.90;;;;;;5016193;28;20226;-77
2023/01/08 10:52:31;;;;;;;11.80;3.50;;;12.50;99.90;;;;;;5002822;28;20211;-78
2023/01/08 10:55:10;;;;;;;15.27;4.60;;;12.70;99.90;;;;;;5007912;28;20558;-77
2023/01/08 10:57:40;;;;;;;12.00;3.90;;;12.90;99.90;;;;;;5006870;28;20213;-78
2023/01/08 11:00:23;;;;;;;12.07;3.77;;;13.20;99.90;;;;;;4990558;28;20706;-77
2023/01/08 11:02:50;;;;;;;13.87;3.83;;;13.30;99.90;;;;;;5014234;28;20733;-77
2023/01/08 11:05:18;;;;;;;12.90;3.90;;;13.30;99.90;;;;;;4994832;28;20238;-77
2023/01/08 11:07:52;;;;;;;12.50;3.63;;;13.30;99.90;;;;;;5026663;28;20589;-77
2023/01/08 11:10:24;;;;;;;11.47;3.23;;;13.30;99.90;;;;;;5019290;28;20232;-77
2023/01/08 11:12:55;;;;;;;9.80;3.30;;;13.30;99.90;;;;;;5012778;28;20206;-77
2023/01/08 11:15:35;;;;;;;13.50;3.50;;;13.30;99.90;;;;;;4997888;28;20261;-77
2023/01/08 11:18:16;;;;;;;9.57;3.27;;;13.30;99.90;;;;;;5003374;28;20210;-78
2023/01/08 11:20:46;;;;;;;11.77;3.63;;;13.20;99.90;;;;;;5017282;28;20226;-77
2023/01/08 11:23:17;;;;;;;10.73;3.20;;;13.10;99.90;;;;;;5030177;28;20315;-77
2023/01/08 11:25:48;;;;;;;9.83;3.13;;;13.30;99.90;;;;;;5000494;28;20213;-77
2023/01/08 11:28:21;;;;;;;10.67;3.63;;;12.90;99.90;;;;;;5015637;28;20260;-78
2023/01/08 11:30:54;;;;;;;12.10;3.60;;;12.80;99.90;;;;;;5013213;28;20243;-77
2023/01/08 11:33:25;;;;;;;9.97;3.47;;;12.70;99.90;;;;;;5019914;28;20233;-77
2023/01/08 11:36:00;;;;;;;10.40;3.27;;;12.70;99.90;;;;;;5007579;28;20309;-80
2023/01/08 11:38:27;;;;;;;10.17;3.23;;;12.60;99.90;;;;;;5020600;28;20212;-79
2023/01/08 11:41:02;;;;;;;12.80;4.03;;;12.60;99.90;;;;;;5547234;22;20304;-79
2023/01/08 11:43:38;;;;;;;9.57;3.00;;;12.60;99.90;;;;;;5035941;28;20232;-79
2023/01/08 11:46:20;;;;;;;9.13;2.83;;;12.70;99.90;;;;;;5037670;28;20212;-78
2023/01/08 11:49:22;;;;;;;18.93;4.00;;;12.60;99.90;;;;;;5036793;28;20241;-79
2023/01/08 11:52:04;;;;;;;10.23;3.37;;;12.50;99.90;;;;;;5023050;28;20612;-79
2023/01/08 11:54:47;;;;;;;11.53;3.27;;;12.40;99.90;;;;;;5017328;28;20213;-80
2023/01/08 11:57:30;;;;;;;12.90;3.90;;;12.30;99.90;;;;;;5015909;28;20220;-81
2023/01/08 12:00:12;;;;;;;9.53;3.20;;;12.30;99.90;;;;;;4998663;28;20260;-78
2023/01/08 12:02:52;;;;;;;10.07;3.23;;;12.20;99.90;;;;;;5016826;28;20229;-77
2023/01/08 12:05:31;;;;;;;11.30;3.33;;;12.10;99.90;;;;;;5035111;28;20209;-79
2023/01/08 12:08:06;;;;;;;10.67;3.10;;;12.10;99.90;;;;;;5000402;28;20528;-79
2023/01/08 12:10:44;;;;;;;11.07;3.13;;;12.00;99.90;;;;;;5026656;28;20346;-80
2023/01/08 12:13:27;;;;;;;9.40;2.83;;;11.40;99.90;;;;;;5029294;28;20210;-80
2023/01/08 12:16:08;;;;;;;10.47;2.93;;;10.90;99.90;;;;;;5025353;28;20206;-78
2023/01/08 12:18:55;;;;;;;11.10;3.17;;;10.50;99.90;;;;;;5020421;28;20197;-82
2023/01/08 12:21:30;;;;;;;11.43;2.70;;;10.20;99.90;;;;;;5023365;28;20225;-79
2023/01/08 12:24:14;;;;;;;10.20;2.70;;;10.20;99.90;;;;;;5020713;28;20208;-79
2023/01/08 12:26:47;;;;;;;9.37;2.73;;;10.20;99.90;;;;;;5029436;28;20202;-78
2023/01/08 12:29:31;;;;;;;10.03;2.83;;;10.30;99.90;;;;;;5002864;28;20232;-79
2023/01/08 12:32:17;;;;;;;12.07;3.33;;;10.40;99.90;;;;;;5030442;28;20198;-78
2023/01/08 12:34:53;;;;;;;11.43;2.83;;;10.40;99.90;;;;;;5021263;28;20603;-81
2023/01/08 12:37:25;;;;;;;12.40;3.40;;;10.50;99.90;;;;;;5018978;28;20205;-79
2023/01/08 12:42:41;;;;;;;10.57;2.80;;;11.20;99.90;;;;;;5064764;28;21181;-78
2023/01/08 12:45:16;;;;;;;11.80;3.23;;;11.50;99.90;;;;;;5066138;28;20215;-79
2023/01/08 12:47:46;;;;;;;10.10;3.30;;;11.60;99.90;;;;;;5063140;28;20200;-78
2023/01/08 12:50:27;;;;;;;10.73;3.60;;;11.70;99.90;;;;;;5061618;28;20228;-78
2023/01/08 12:53:01;;;;;;;10.23;3.40;;;11.80;99.90;;;;;;5064818;28;20215;-79
2023/01/08 12:55:41;;;;;;;11.20;3.20;;;11.80;99.90;;;;;;5070117;28;20266;-77
2023/01/08 12:58:25;;;;;;;12.20;3.30;;;11.80;99.90;;;;;;5067683;28;20241;-77
2023/01/08 13:01:00;;;;;;;9.47;3.00;;;11.80;99.90;;;;;;5072190;28;20680;-77
2023/01/08 13:03:29;;;;;;;10.57;3.37;;;11.90;99.90;;;;;;5072044;28;20234;-77